createdAt,value
2022-12-20T00:00:29.267Z,9.05
2022-12-20T00:03:15.072Z,8.05
2022-12-20T00:06:00.548Z,7.40
2022-12-20T00:08:48.465Z,7.50
2022-12-20T00:11:34.211Z,12.63
2022-12-20T00:14:20.689Z,8.88
2022-12-20T00:17:06.015Z,9.80
2022-12-20T00:19:57.710Z,11.02
2022-12-20T00:22:44.853Z,7.78
2022-12-20T00:25:30.454Z,7.88
2022-12-20T00:28:15.988Z,6.57
2022-12-20T00:31:02.735Z,9.90
2022-12-20T00:33:50.503Z,8.30
2022-12-20T00:36:36.717Z,5.93
2022-12-20T00:39:26.289Z,8.98
2022-12-20T00:42:11.955Z,12.00
2022-12-20T00:44:57.496Z,8.10
2022-12-20T00:47:42.828Z,13.65
2022-12-20T00:50:28.301Z,8.25
2022-12-20T00:53:14.019Z,11.70
2022-12-20T00:56:00.111Z,13.73
2022-12-20T00:58:45.909Z,8.45
2022-12-20T01:01:34.689Z,8.18
2022-12-20T01:04:20.777Z,7.80
2022-12-20T01:07:06.309Z,10.20
2022-12-20T01:09:52.295Z,9.85
2022-12-20T01:12:37.793Z,7.53
2022-12-20T01:15:23.488Z,9.00
2022-12-20T01:18:09.508Z,11.38
2022-12-20T01:21:09.313Z,11.07
2022-12-20T01:23:55.599Z,7.18
2022-12-20T01:26:44.578Z,10.57
2022-12-20T01:29:29.942Z,7.90
2022-12-20T01:32:15.574Z,8.30
2022-12-20T01:35:01.103Z,7.78
2022-12-20T01:37:46.755Z,13.80
2022-12-20T01:40:32.157Z,11.35
2022-12-20T01:43:19.540Z,8.13
2022-12-20T01:46:06.396Z,9.75
2022-12-20T01:49:10.904Z,8.10
2022-12-20T01:52:02.779Z,7.00
2022-12-20T01:55:11.034Z,7.78
2022-12-20T01:58:09.851Z,9.80
2022-12-20T02:00:56.268Z,10.48
2022-12-20T02:03:43.889Z,7.45
2022-12-20T02:06:29.431Z,10.85
2022-12-20T02:09:15.673Z,7.68
2022-12-20T02:12:23.021Z,7.30
2022-12-20T02:15:20.357Z,7.65
2022-12-20T02:18:31.934Z,11.25
2022-12-20T02:21:38.652Z,8.90
2022-12-20T02:25:13.700Z,8.27
2022-12-20T02:28:30.487Z,6.00
2022-12-20T02:31:21.062Z,10.55
2022-12-20T02:34:11.373Z,7.50
2022-12-20T02:36:59.559Z,8.32
2022-12-20T02:39:48.964Z,8.18
2022-12-20T02:42:36.024Z,12.57
2022-12-20T02:45:26.276Z,9.68
2022-12-20T02:48:12.016Z,10.60
2022-12-20T02:51:00.414Z,7.05
2022-12-20T02:53:46.440Z,7.18
2022-12-20T02:56:43.073Z,7.80
2022-12-20T02:59:33.923Z,8.57
2022-12-20T03:02:20.907Z,10.73
2022-12-20T03:05:07.331Z,12.13
2022-12-20T03:07:56.275Z,8.65
2022-12-20T03:10:44.229Z,9.93
2022-12-20T03:13:30.067Z,8.80
2022-12-20T03:16:20.455Z,5.63
2022-12-20T03:19:08.857Z,8.63
2022-12-20T03:21:54.191Z,7.95
2022-12-20T03:24:39.576Z,9.45
2022-12-20T03:27:30.052Z,8.18
2022-12-20T03:30:16.646Z,8.95
2022-12-20T03:33:02.592Z,7.13
2022-12-20T03:35:48.558Z,7.50
2022-12-20T03:38:39.628Z,6.82
2022-12-20T03:41:29.442Z,8.38
2022-12-20T03:44:18.120Z,6.82
2022-12-20T03:47:03.838Z,8.30
2022-12-20T03:49:49.194Z,8.45
2022-12-20T03:52:37.764Z,7.93
2022-12-20T03:55:24.128Z,6.22
2022-12-20T03:58:09.729Z,11.35
2022-12-20T04:00:58.016Z,7.68
2022-12-20T04:03:57.635Z,9.38
2022-12-20T04:06:43.343Z,8.23
2022-12-20T04:09:30.127Z,7.10
2022-12-20T04:12:23.182Z,5.70
2022-12-20T04:15:08.616Z,7.50
2022-12-20T04:17:55.289Z,9.18
2022-12-20T04:20:55.006Z,6.47
2022-12-20T04:23:45.440Z,9.30
2022-12-20T04:26:31.935Z,10.68
2022-12-20T04:29:18.980Z,6.72
2022-12-20T04:32:07.187Z,7.65
2022-12-20T04:34:52.620Z,10.10
2022-12-20T04:37:41.298Z,9.82
2022-12-20T04:40:26.780Z,10.15
2022-12-20T04:43:15.341Z,6.75
2022-12-20T04:46:01.420Z,5.75
2022-12-20T04:48:59.263Z,7.30
2022-12-20T04:51:45.260Z,7.85
2022-12-20T04:54:34.222Z,10.27
2022-12-20T04:57:30.928Z,8.40
2022-12-20T05:00:27.018Z,9.00
2022-12-20T05:03:24.689Z,8.63
2022-12-20T05:06:14.034Z,10.32
2022-12-20T05:08:59.553Z,9.63
2022-12-20T05:11:45.343Z,11.48
2022-12-20T05:14:30.835Z,10.27
2022-12-20T05:17:18.135Z,11.30
2022-12-20T05:20:05.676Z,12.93
2022-12-20T05:23:10.197Z,16.08
2022-12-20T05:26:14.536Z,16.13
2022-12-20T05:29:00.573Z,8.45
2022-12-20T05:31:46.475Z,13.13
2022-12-20T05:34:35.127Z,8.20
2022-12-20T05:37:20.398Z,11.25
2022-12-20T05:40:07.337Z,15.90
2022-12-20T05:42:53.268Z,13.85
2022-12-20T05:45:51.365Z,9.35
2022-12-20T05:48:42.007Z,13.50
2022-12-20T05:51:30.587Z,9.18
2022-12-20T05:54:22.816Z,9.27
2022-12-20T05:57:16.197Z,11.60
2022-12-20T06:00:02.243Z,6.93
2022-12-20T06:02:50.920Z,8.95
2022-12-20T06:06:03.632Z,10.02
2022-12-20T06:08:57.478Z,5.88
2022-12-20T06:17:32.446Z,9.77
2022-12-20T06:20:24.472Z,7.03
2022-12-20T06:23:16.953Z,5.18
2022-12-20T06:26:09.751Z,6.15
2022-12-20T06:29:07.233Z,9.25
2022-12-20T06:31:57.702Z,8.95
2022-12-20T06:34:43.555Z,7.75
2022-12-20T06:37:30.173Z,7.70
2022-12-20T06:40:15.710Z,7.30
2022-12-20T06:43:01.244Z,6.88
2022-12-20T06:45:50.181Z,7.97
2022-12-20T06:48:35.743Z,6.35
2022-12-20T06:51:23.291Z,6.88
2022-12-20T06:54:08.865Z,9.68
2022-12-20T06:56:54.842Z,6.78
2022-12-20T06:59:43.592Z,9.20
2022-12-20T07:02:29.208Z,10.15
2022-12-20T07:05:14.957Z,5.78
2022-12-20T07:08:00.200Z,11.57
2022-12-20T07:10:46.155Z,8.32
2022-12-20T07:13:31.701Z,8.23
2022-12-20T07:16:18.121Z,13.95
2022-12-20T07:19:03.869Z,4.68
2022-12-20T07:21:49.391Z,6.70
2022-12-20T07:24:36.699Z,5.85
2022-12-20T07:27:26.062Z,5.55
2022-12-20T07:30:11.517Z,8.90
2022-12-20T07:32:57.384Z,6.25
2022-12-20T07:35:52.436Z,7.15
2022-12-20T07:38:42.727Z,9.82
2022-12-20T07:41:28.439Z,7.93
2022-12-20T07:44:13.827Z,5.32
2022-12-20T07:47:02.243Z,6.95
2022-12-20T07:49:49.471Z,5.28
2022-12-20T07:52:36.347Z,4.80
2022-12-20T07:55:22.359Z,5.15
2022-12-20T07:58:13.019Z,8.38
2022-12-20T08:00:59.006Z,8.60
2022-12-20T08:03:50.099Z,6.40
2022-12-20T08:06:37.752Z,7.95
2022-12-20T08:09:27.174Z,9.48
2022-12-20T08:12:18.797Z,8.52
2022-12-20T08:15:05.009Z,10.55
2022-12-20T08:17:53.446Z,9.25
2022-12-20T08:20:38.726Z,8.77
2022-12-20T08:23:24.425Z,5.90
2022-12-20T08:26:10.153Z,7.07
2022-12-20T08:28:55.995Z,10.60
2022-12-20T08:31:50.055Z,9.88
2022-12-20T08:34:39.488Z,8.60
2022-12-20T08:37:24.954Z,8.95
2022-12-20T08:40:11.346Z,6.30
2022-12-20T08:42:56.806Z,9.25
2022-12-20T08:45:44.444Z,10.30
2022-12-20T08:48:30.093Z,9.85
2022-12-20T08:51:15.490Z,10.77
2022-12-20T08:54:02.752Z,9.05
2022-12-20T08:56:48.737Z,12.98
2022-12-20T08:59:34.238Z,5.97
2022-12-20T09:02:19.816Z,9.80
2022-12-20T09:05:06.183Z,9.55
2022-12-20T09:07:53.482Z,10.73
2022-12-20T09:10:40.999Z,9.75
2022-12-20T09:13:26.742Z,11.48
2022-12-20T09:16:14.473Z,11.13
2022-12-20T09:19:05.650Z,8.95
2022-12-20T09:21:52.128Z,10.00
2022-12-20T09:24:40.458Z,10.55
2022-12-20T09:27:26.000Z,10.88
2022-12-20T09:30:11.833Z,11.10
2022-12-20T09:32:57.444Z,9.18
2022-12-20T09:35:55.673Z,11.27
2022-12-20T09:38:41.725Z,19.48
2022-12-20T09:41:39.784Z,12.32
2022-12-20T09:44:36.123Z,13.48
2022-12-20T09:47:28.309Z,17.88
2022-12-20T09:50:17.805Z,10.10
2022-12-20T09:53:41.598Z,14.40
2022-12-20T09:56:29.045Z,9.05
2022-12-20T09:59:19.099Z,16.15
2022-12-20T10:02:44.045Z,12.48
2022-12-20T10:05:40.883Z,12.88
2022-12-20T10:08:50.111Z,10.27
2022-12-20T10:12:28.757Z,14.90
2022-12-20T10:15:25.732Z,9.52
2022-12-20T10:18:11.070Z,11.57
2022-12-20T10:21:20.179Z,13.98
2022-12-20T10:24:16.420Z,9.32
2022-12-20T10:27:28.221Z,10.90
2022-12-20T10:30:21.342Z,14.65
2022-12-20T10:33:09.712Z,13.50
2022-12-20T10:35:55.508Z,12.45
2022-12-20T10:38:50.815Z,16.38
2022-12-20T10:41:42.887Z,15.35
2022-12-20T10:44:33.153Z,11.90
2022-12-20T10:47:45.941Z,10.82
2022-12-20T10:50:31.588Z,12.32
2022-12-20T10:53:21.545Z,10.32
2022-12-20T10:56:09.968Z,14.38
2022-12-20T10:58:56.923Z,9.82
2022-12-20T11:01:53.592Z,12.50
2022-12-20T11:04:40.479Z,14.65
2022-12-20T11:07:29.041Z,14.55
2022-12-20T11:10:24.355Z,12.73
2022-12-20T11:13:26.515Z,19.45
2022-12-20T11:16:24.460Z,19.17
2022-12-20T11:19:37.675Z,12.90
2022-12-20T11:22:32.485Z,14.52
2022-12-20T11:25:56.836Z,12.73
2022-12-20T11:29:16.930Z,17.05
2022-12-20T11:32:33.004Z,12.27
2022-12-20T11:35:30.898Z,16.92
2022-12-20T11:38:35.796Z,16.58
2022-12-20T11:41:28.695Z,14.77
2022-12-20T11:44:27.759Z,8.35
2022-12-20T11:47:47.947Z,15.38
2022-12-20T11:50:48.317Z,12.13
2022-12-20T11:53:50.842Z,11.95
2022-12-20T11:56:45.137Z,15.52
2022-12-20T11:59:49.274Z,9.98
2022-12-20T12:02:58.042Z,16.02
2022-12-20T12:05:49.233Z,9.07
2022-12-20T12:08:52.841Z,12.18
2022-12-20T12:12:10.421Z,12.27
2022-12-20T12:15:04.684Z,11.75
2022-12-20T12:18:01.837Z,13.57
2022-12-20T12:20:56.828Z,11.88
2022-12-20T12:23:49.864Z,9.85
2022-12-20T12:26:39.999Z,10.65
2022-12-20T12:29:25.674Z,9.85
2022-12-20T12:32:24.824Z,15.27
2022-12-20T12:35:42.894Z,11.63
2022-12-20T12:38:32.754Z,11.43
2022-12-20T12:41:43.390Z,15.32
2022-12-20T12:44:34.669Z,13.05
2022-12-20T12:47:27.511Z,13.20
2022-12-20T12:50:23.402Z,14.68
2022-12-20T12:53:17.545Z,19.08
2022-12-20T12:56:43.645Z,15.77
2022-12-20T12:59:33.009Z,13.68
2022-12-20T13:02:28.201Z,17.40
2022-12-20T13:05:13.637Z,13.98
2022-12-20T13:08:00.841Z,16.40
2022-12-20T13:10:53.041Z,12.40
2022-12-20T13:13:39.445Z,12.45
2022-12-20T13:16:48.695Z,16.20
2022-12-20T13:19:38.725Z,14.52
2022-12-20T13:22:26.535Z,11.68
2022-12-20T13:25:29.957Z,14.35
2022-12-20T13:28:25.316Z,12.23
2022-12-20T13:31:11.002Z,13.82
2022-12-20T13:34:00.923Z,15.10
2022-12-20T13:36:46.726Z,12.90
2022-12-20T13:39:34.324Z,17.23
2022-12-20T13:42:32.968Z,15.73
2022-12-20T13:45:18.752Z,12.13
2022-12-20T13:48:11.693Z,15.32
2022-12-20T13:50:58.369Z,10.93
2022-12-20T13:53:54.212Z,12.73
2022-12-20T13:56:51.078Z,15.85
2022-12-20T13:59:36.826Z,13.23
2022-12-20T14:02:29.363Z,13.75
2022-12-20T14:05:28.624Z,12.32
2022-12-20T14:08:24.854Z,14.98
2022-12-20T14:11:12.612Z,18.42
2022-12-20T14:14:03.497Z,15.70
2022-12-20T14:16:49.281Z,15.95
2022-12-20T14:19:34.778Z,12.35
2022-12-20T14:22:20.568Z,16.80
2022-12-20T14:25:10.760Z,15.82
2022-12-20T14:27:58.084Z,15.13
2022-12-20T14:30:44.985Z,16.15
2022-12-20T14:33:42.214Z,20.63
2022-12-20T14:36:27.880Z,17.15
2022-12-20T14:39:54.866Z,16.17
2022-12-20T14:42:40.821Z,15.30
2022-12-20T14:45:28.833Z,16.35
2022-12-20T14:48:17.210Z,16.10
2022-12-20T14:51:05.635Z,14.98
2022-12-20T14:53:51.923Z,21.08
2022-12-20T14:56:37.917Z,20.02
2022-12-20T14:59:31.749Z,16.88
2022-12-20T15:02:39.658Z,16.65
2022-12-20T15:05:34.963Z,19.23
2022-12-20T15:08:30.092Z,17.38
2022-12-20T15:14:36.947Z,22.25
2022-12-20T15:17:25.652Z,19.02
2022-12-20T15:20:15.005Z,18.80
2022-12-20T15:23:00.441Z,18.90
2022-12-20T15:25:47.077Z,17.33
2022-12-20T15:28:32.685Z,18.77
2022-12-20T15:31:20.542Z,21.35
2022-12-20T15:34:36.758Z,15.85
2022-12-20T15:37:26.989Z,18.17
2022-12-20T15:40:14.963Z,15.05
2022-12-20T15:43:03.210Z,15.32
2022-12-20T15:45:54.082Z,18.25
2022-12-20T15:48:39.934Z,17.23
2022-12-20T15:51:32.073Z,16.33
2022-12-20T15:54:27.973Z,16.15
2022-12-20T15:57:16.751Z,20.63
2022-12-20T16:00:04.660Z,20.13
2022-12-20T16:03:02.703Z,16.75
2022-12-20T16:05:49.635Z,17.45
2022-12-20T16:08:35.202Z,18.52
2022-12-20T16:11:28.403Z,21.52
2022-12-20T16:14:21.837Z,25.45
2022-12-20T16:17:09.721Z,22.33
2022-12-20T16:19:55.622Z,21.67
2022-12-20T16:22:41.415Z,22.67
2022-12-20T16:25:32.515Z,21.50
2022-12-20T16:28:18.411Z,22.83
2022-12-20T16:31:31.115Z,24.27
2022-12-20T16:34:18.256Z,22.90
2022-12-20T16:37:04.953Z,21.90
2022-12-20T16:39:50.507Z,25.33
2022-12-20T16:42:36.581Z,24.23
2022-12-20T16:45:25.169Z,21.15
2022-12-20T16:48:31.115Z,25.45
2022-12-20T16:51:32.090Z,22.80
2022-12-20T16:54:23.126Z,22.42
2022-12-20T16:57:09.782Z,24.90
2022-12-20T16:59:55.246Z,25.13
2022-12-20T17:02:41.102Z,23.83
2022-12-20T17:05:30.583Z,25.27
2022-12-20T17:11:23.092Z,28.58
2022-12-20T17:14:12.924Z,26.10
2022-12-20T17:17:01.767Z,26.20
2022-12-20T17:19:47.567Z,26.85
2022-12-20T17:25:40.175Z,29.42
2022-12-20T17:28:28.638Z,25.92
2022-12-20T17:31:39.815Z,31.02
2022-12-20T17:34:27.420Z,28.50
2022-12-20T17:37:12.667Z,29.50
2022-12-20T17:40:01.304Z,29.35
2022-12-20T17:42:46.871Z,31.92
2022-12-20T17:45:36.219Z,31.58
2022-12-20T17:48:27.455Z,32.78
2022-12-20T17:51:36.448Z,35.40
2022-12-20T17:54:28.084Z,36.95
2022-12-20T17:57:16.829Z,34.50
2022-12-20T18:00:03.112Z,36.05
2022-12-20T18:02:51.172Z,35.30
2022-12-20T18:05:40.561Z,35.63
2022-12-20T18:08:25.773Z,39.00
2022-12-20T18:11:11.271Z,41.95
2022-12-20T18:13:58.489Z,38.97
2022-12-20T18:16:47.603Z,44.47
2022-12-20T18:19:33.156Z,45.17
2022-12-20T18:22:18.809Z,47.28
2022-12-20T18:25:08.399Z,52.58
2022-12-20T18:27:53.955Z,48.65
2022-12-20T18:30:42.352Z,54.05
2022-12-20T18:33:27.737Z,55.15
2022-12-20T18:36:16.432Z,51.80
2022-12-20T18:39:07.487Z,54.92
2022-12-20T18:41:53.160Z,54.67
2022-12-20T18:44:39.782Z,58.17
2022-12-20T18:47:25.595Z,61.40
2022-12-20T18:50:13.259Z,56.10
2022-12-20T18:53:01.553Z,57.72
2022-12-20T18:55:48.460Z,61.58
2022-12-20T18:58:34.137Z,61.03
2022-12-20T19:01:25.982Z,63.67
2022-12-20T19:04:11.892Z,62.08
2022-12-20T19:06:58.389Z,65.72
2022-12-20T19:09:46.670Z,70.32
2022-12-20T19:12:32.172Z,59.75
2022-12-20T19:15:17.891Z,70.40
2022-12-20T19:18:03.468Z,73.35
2022-12-20T19:20:48.793Z,68.35
2022-12-20T19:23:35.466Z,71.25
2022-12-20T19:26:23.337Z,65.05
2022-12-20T19:29:09.094Z,73.57
2022-12-20T19:31:55.353Z,69.30
2022-12-20T19:34:51.093Z,64.15
2022-12-20T19:37:39.427Z,73.03
2022-12-20T19:40:24.783Z,70.10
2022-12-20T19:43:12.641Z,68.75
2022-12-20T19:45:58.367Z,69.22
2022-12-20T19:48:44.142Z,69.95
2022-12-20T19:51:29.657Z,74.22
2022-12-20T19:54:15.140Z,68.63
2022-12-20T19:57:00.697Z,70.15
2022-12-20T19:59:49.716Z,66.95
2022-12-20T20:02:41.494Z,65.05
2022-12-20T20:05:27.409Z,69.47
2022-12-20T20:08:13.248Z,66.55
2022-12-20T20:11:05.295Z,64.00
2022-12-20T20:13:52.971Z,64.55
2022-12-20T20:16:41.281Z,67.30
2022-12-20T20:19:29.459Z,64.40
2022-12-20T20:22:19.281Z,72.03
2022-12-20T20:25:08.469Z,72.97
2022-12-20T20:27:56.416Z,72.45
2022-12-20T20:30:47.042Z,67.95
2022-12-20T20:33:32.607Z,76.22
2022-12-20T20:36:20.636Z,76.18
2022-12-20T20:39:08.887Z,80.30
2022-12-20T20:41:55.828Z,76.05
2022-12-20T20:44:41.315Z,78.75
2022-12-20T20:47:26.865Z,76.00
2022-12-20T20:50:14.037Z,89.18
2022-12-20T20:53:00.048Z,89.35
2022-12-20T20:55:45.305Z,88.72
2022-12-20T20:58:31.150Z,86.35
2022-12-20T21:01:16.454Z,87.28
2022-12-20T21:04:02.001Z,87.70
2022-12-20T21:06:47.315Z,92.57
2022-12-20T21:09:32.697Z,88.95
2022-12-20T21:12:19.407Z,95.03
2022-12-20T21:15:24.297Z,91.70
2022-12-20T21:18:11.184Z,100.18
2022-12-20T21:20:57.520Z,87.72
2022-12-20T21:23:47.031Z,84.70
2022-12-20T21:26:32.182Z,87.85
2022-12-20T21:29:17.811Z,84.90
2022-12-20T21:32:05.838Z,84.53
2022-12-20T21:34:54.484Z,91.68
2022-12-20T21:37:41.903Z,80.15
2022-12-20T21:40:27.376Z,82.93
2022-12-20T21:43:12.894Z,76.18
2022-12-20T21:45:58.831Z,91.32
2022-12-20T21:48:45.498Z,86.10
2022-12-20T21:51:31.039Z,73.88
2022-12-20T21:54:16.450Z,66.72
2022-12-20T21:57:02.575Z,65.07
2022-12-20T21:59:48.017Z,66.00
2022-12-20T22:02:33.389Z,52.10
2022-12-20T22:05:18.781Z,56.63
2022-12-20T22:08:04.798Z,49.58
2022-12-20T22:11:01.808Z,52.58
2022-12-20T22:13:47.501Z,46.55
2022-12-20T22:16:34.975Z,49.35
2022-12-20T22:19:21.062Z,42.83
2022-12-20T22:22:06.407Z,48.45
2022-12-20T22:24:54.474Z,41.10
2022-12-20T22:27:39.837Z,39.72
2022-12-20T22:30:25.512Z,44.35
2022-12-20T22:33:13.219Z,44.25
2022-12-20T22:36:01.848Z,33.50
2022-12-20T22:38:49.980Z,39.58
2022-12-20T22:41:35.545Z,40.30
2022-12-20T22:44:21.348Z,35.25
2022-12-20T22:47:07.112Z,34.28
2022-12-20T22:49:53.305Z,31.58
2022-12-20T22:52:38.896Z,30.38
2022-12-20T22:55:26.373Z,25.98
2022-12-20T22:58:14.048Z,26.38
2022-12-20T23:01:01.589Z,29.27
2022-12-20T23:03:48.057Z,32.03
2022-12-20T23:06:33.401Z,34.63
2022-12-20T23:09:18.876Z,37.03
2022-12-20T23:12:22.844Z,30.27
2022-12-20T23:15:31.882Z,25.27
2022-12-20T23:18:17.477Z,27.27
2022-12-20T23:21:22.744Z,27.33
2022-12-20T23:24:08.262Z,26.77
2022-12-20T23:26:53.926Z,28.35
2022-12-20T23:29:39.529Z,31.92
2022-12-20T23:32:25.432Z,27.38
2022-12-20T23:35:12.951Z,32.75
2022-12-20T23:37:59.233Z,24.63
2022-12-20T23:40:44.643Z,27.98
2022-12-20T23:43:30.663Z,34.10
2022-12-20T23:46:19.267Z,32.25
2022-12-20T23:49:04.753Z,35.55
2022-12-20T23:51:50.018Z,37.05
2022-12-20T23:54:35.668Z,34.38
2022-12-20T23:57:20.802Z,32.95
